createdAt,value
2018-06-23T00:00:19.527Z,101627.00
2018-06-23T00:02:48.529Z,101615.14
2018-06-23T00:05:17.474Z,101606.56
2018-06-23T00:07:46.462Z,101625.23
2018-06-23T00:10:15.433Z,101620.19
2018-06-23T00:12:44.408Z,101627.72
2018-06-23T00:15:13.312Z,101627.79
2018-06-23T00:17:42.202Z,101626.02
2018-06-23T00:20:11.067Z,101618.81
2018-06-23T00:22:39.972Z,101628.05
2018-06-23T00:25:08.880Z,101618.42
2018-06-23T00:27:37.824Z,101623.47
2018-06-23T00:30:06.740Z,101616.27
2018-06-23T00:32:35.617Z,101623.98
2018-06-23T00:35:04.476Z,101609.91
2018-06-23T00:37:33.321Z,101610.30
2018-06-23T00:40:02.292Z,101613.70
2018-06-23T00:42:31.173Z,101606.44
2018-06-23T00:45:00.094Z,101605.12
2018-06-23T00:47:28.962Z,101596.81
2018-06-23T00:49:58.910Z,101591.50
2018-06-23T00:52:27.891Z,101591.83
2018-06-23T00:54:56.809Z,101585.28
2018-06-23T00:57:25.747Z,101586.33
2018-06-23T00:59:54.645Z,101579.66
2018-06-23T01:02:23.482Z,101587.64
2018-06-23T01:04:52.375Z,101577.62
2018-06-23T01:07:21.288Z,101580.05
2018-06-23T01:09:50.165Z,101579.27
2018-06-23T01:12:19.087Z,101583.98
2018-06-23T01:14:48.012Z,101584.83
2018-06-23T01:17:16.985Z,101586.19
2018-06-23T01:19:45.892Z,101580.03
2018-06-23T01:22:14.754Z,101584.19
2018-06-23T01:24:43.733Z,101585.98
2018-06-23T01:27:12.734Z,101585.52
2018-06-23T01:29:41.644Z,101579.75
2018-06-23T01:32:10.557Z,101582.52
2018-06-23T01:34:39.498Z,101583.16
2018-06-23T01:37:08.340Z,101575.29
2018-06-23T01:39:37.277Z,101568.09
2018-06-23T01:42:07.162Z,101565.54
2018-06-23T01:44:36.068Z,101561.03
2018-06-23T01:47:05.024Z,101562.94
2018-06-23T01:49:33.912Z,101562.22
2018-06-23T01:52:02.877Z,101561.17
2018-06-23T01:54:31.759Z,101552.66
2018-06-23T01:57:00.736Z,101552.00
2018-06-23T01:59:29.564Z,101545.89
2018-06-23T02:01:58.417Z,101546.60
2018-06-23T02:04:27.409Z,101548.94
2018-06-23T02:06:56.255Z,101551.32
2018-06-23T02:09:25.184Z,101541.16
2018-06-23T02:11:54.083Z,101544.42
2018-06-23T02:14:28.070Z,101547.11
2018-06-23T02:17:02.133Z,101550.52
2018-06-23T02:19:36.207Z,101546.83
2018-06-23T02:22:10.361Z,101541.05
2018-06-23T02:24:44.473Z,101549.31
2018-06-23T02:27:18.674Z,101543.68
2018-06-23T02:29:52.880Z,101539.84
2018-06-23T02:32:26.770Z,101551.72
2018-06-23T02:35:05.080Z,101536.84
2018-06-23T02:37:36.219Z,101533.51
2018-06-23T02:40:05.505Z,101532.13
2018-06-23T02:42:34.713Z,101531.59
2018-06-23T02:45:04.117Z,101533.83
2018-06-23T02:47:33.055Z,101535.20
2018-06-23T02:50:02.011Z,101538.53
2018-06-23T02:52:31.919Z,101532.39
2018-06-23T02:55:01.256Z,101537.48
2018-06-23T02:57:30.367Z,101542.80
2018-06-23T02:59:59.322Z,101547.73
2018-06-23T03:02:28.201Z,101546.41
2018-06-23T03:04:57.322Z,101553.77
2018-06-23T03:07:26.228Z,101549.91
2018-06-23T03:09:55.261Z,101545.13
2018-06-23T03:12:24.143Z,101545.95
2018-06-23T03:14:52.957Z,101541.63
2018-06-23T03:17:21.885Z,101545.56
2018-06-23T03:19:51.917Z,101548.04
2018-06-23T03:22:20.989Z,101549.81
2018-06-23T03:24:49.841Z,101546.73
2018-06-23T03:27:18.706Z,101552.58
2018-06-23T03:29:47.569Z,101552.90
2018-06-23T03:32:16.400Z,101546.58
2018-06-23T03:34:48.426Z,101549.13
2018-06-23T03:37:17.286Z,101559.86
2018-06-23T03:39:46.182Z,101549.76
2018-06-23T03:42:15.037Z,101549.35
2018-06-23T03:44:43.899Z,101551.44
2018-06-23T03:47:12.827Z,101555.52
2018-06-23T03:49:41.745Z,101544.72
2018-06-23T03:52:10.639Z,101553.75
2018-06-23T03:54:39.590Z,101552.22
2018-06-23T03:57:08.481Z,101552.31
2018-06-23T03:59:37.425Z,101555.53
2018-06-23T04:02:06.373Z,101561.16
2018-06-23T04:04:35.245Z,101552.63
2018-06-23T04:07:04.140Z,101563.80
2018-06-23T04:09:33.078Z,101567.20
2018-06-23T04:12:01.994Z,101571.75
2018-06-23T04:14:30.914Z,101566.05
2018-06-23T04:16:59.862Z,101565.87
2018-06-23T04:19:28.845Z,101564.50
2018-06-23T04:21:57.729Z,101575.31
2018-06-23T04:24:26.620Z,101579.37
2018-06-23T04:26:55.492Z,101571.66
2018-06-23T04:29:24.480Z,101569.60
2018-06-23T04:31:53.521Z,101571.53
2018-06-23T04:34:22.491Z,101574.16
2018-06-23T04:36:51.424Z,101583.17
2018-06-23T04:39:20.393Z,101586.96
2018-06-23T04:41:49.301Z,101580.31
2018-06-23T04:44:18.176Z,101584.95
2018-06-23T04:46:47.057Z,101583.08
2018-06-23T04:49:16.017Z,101581.47
2018-06-23T04:51:44.867Z,101586.02
2018-06-23T04:54:13.865Z,101584.56
2018-06-23T04:56:42.775Z,101574.08
2018-06-23T04:59:11.772Z,101574.92
2018-06-23T05:01:40.691Z,101576.63
2018-06-23T05:04:09.673Z,101573.36
2018-06-23T05:06:38.685Z,101568.89
2018-06-23T05:09:08.270Z,101574.89
2018-06-23T05:11:37.193Z,101578.94
2018-06-23T05:14:06.049Z,101580.41
2018-06-23T05:16:35.000Z,101582.23
2018-06-23T05:19:03.929Z,101580.75
2018-06-23T05:21:32.773Z,101582.03
2018-06-23T05:24:01.648Z,101581.38
2018-06-23T05:26:30.559Z,101578.67
2018-06-23T05:28:59.445Z,101582.37
2018-06-23T05:31:28.334Z,101574.22
2018-06-23T05:33:57.299Z,101572.22
2018-06-23T05:36:26.519Z,101583.50
2018-06-23T05:38:55.411Z,101591.21
2018-06-23T05:41:24.345Z,101581.77
2018-06-23T05:43:56.147Z,101585.11
2018-06-23T05:46:25.101Z,101585.19
2018-06-23T05:48:53.993Z,101584.00
2018-06-23T05:51:23.027Z,101585.25
2018-06-23T05:53:52.006Z,101582.30
2018-06-23T05:56:20.926Z,101578.25
2018-06-23T05:58:49.828Z,101590.01
2018-06-23T06:01:18.721Z,101591.69
2018-06-23T06:03:47.798Z,101591.56
2018-06-23T06:06:16.818Z,101591.94
2018-06-23T06:08:45.792Z,101584.66
2018-06-23T06:11:14.759Z,101587.58
2018-06-23T06:13:43.654Z,101590.61
2018-06-23T06:16:12.583Z,101580.22
2018-06-23T06:18:41.562Z,101582.61
2018-06-23T06:21:10.522Z,101576.58
2018-06-23T06:23:39.423Z,101575.74
2018-06-23T06:26:08.308Z,101579.71
2018-06-23T06:28:37.253Z,101590.53
2018-06-23T06:31:06.293Z,101584.67
2018-06-23T06:33:35.188Z,101590.75
2018-06-23T06:36:07.189Z,101591.69
2018-06-23T06:38:36.086Z,101594.51
2018-06-23T06:41:05.089Z,101588.29
2018-06-23T06:43:34.102Z,101588.51
2018-06-23T06:46:03.036Z,101595.58
2018-06-23T06:48:32.071Z,101609.54
2018-06-23T06:51:00.998Z,101611.89
2018-06-23T06:53:29.926Z,101613.34
2018-06-23T06:55:58.803Z,101616.92
2018-06-23T06:58:27.791Z,101622.17
2018-06-23T07:00:56.741Z,101635.00
2018-06-23T07:03:25.687Z,101627.26
2018-06-23T07:05:54.585Z,101628.42
2018-06-23T07:08:23.613Z,101628.97
2018-06-23T07:10:52.521Z,101629.97
2018-06-23T07:13:21.449Z,101626.63
2018-06-23T07:15:50.421Z,101634.97
2018-06-23T07:18:19.317Z,101631.25
2018-06-23T07:20:48.168Z,101630.48
2018-06-23T07:23:17.004Z,101626.66
2018-06-23T07:25:45.861Z,101633.37
2018-06-23T07:28:18.281Z,101627.31
2018-06-23T07:30:48.791Z,101639.91
2018-06-23T07:33:18.066Z,101637.44
2018-06-23T07:35:50.437Z,101638.91
2018-06-23T07:38:19.382Z,101634.97
2018-06-23T07:40:48.608Z,101629.13
2018-06-23T07:43:17.615Z,101628.66
2018-06-23T07:45:46.830Z,101627.70
2018-06-23T07:48:15.766Z,101634.58
2018-06-23T07:50:44.730Z,101633.45
2018-06-23T07:53:14.099Z,101633.63
2018-06-23T07:55:43.162Z,101631.78
2018-06-23T07:58:12.729Z,101627.61
2018-06-23T08:00:41.677Z,101626.46
2018-06-23T08:03:10.622Z,101629.90
2018-06-23T08:05:39.733Z,101623.37
2018-06-23T08:08:09.111Z,101614.89
2018-06-23T08:10:38.699Z,101629.20
2018-06-23T08:13:08.149Z,101627.92
2018-06-23T08:15:37.171Z,101633.93
2018-06-23T08:18:06.314Z,101626.70
2018-06-23T08:20:35.258Z,101637.68
2018-06-23T08:23:04.252Z,101627.88
2018-06-23T08:25:33.248Z,101632.38
2018-06-23T08:28:02.380Z,101629.89
2018-06-23T08:30:31.308Z,101632.95
2018-06-23T08:33:00.332Z,101624.62
2018-06-23T08:35:29.216Z,101611.47
2018-06-23T08:37:58.219Z,101610.08
2018-06-23T08:40:27.155Z,101612.22
2018-06-23T08:42:56.087Z,101606.89
2018-06-23T08:45:25.066Z,101610.00
2018-06-23T08:47:54.044Z,101611.02
2018-06-23T08:50:23.088Z,101612.87
2018-06-23T08:52:52.053Z,101616.48
2018-06-23T08:55:21.073Z,101610.94
2018-06-23T08:57:49.913Z,101619.68
2018-06-23T09:00:18.812Z,101631.59
2018-06-23T09:02:47.776Z,101637.92
2018-06-23T09:05:16.689Z,101651.33
2018-06-23T09:07:45.590Z,101648.80
2018-06-23T09:10:14.486Z,101654.47
2018-06-23T09:12:43.790Z,101671.00
2018-06-23T09:15:12.959Z,101669.55
2018-06-23T09:17:41.851Z,101667.73
2018-06-23T09:20:11.390Z,101666.42
2018-06-23T09:22:40.984Z,101668.78
2018-06-23T09:25:10.085Z,101668.22
2018-06-23T09:27:38.999Z,101661.44
2018-06-23T09:30:08.081Z,101658.28
2018-06-23T09:32:37.060Z,101664.41
2018-06-23T09:35:05.905Z,101664.63
2018-06-23T09:37:34.777Z,101666.18
2018-06-23T09:40:03.749Z,101666.91
2018-06-23T09:42:32.665Z,101659.34
2018-06-23T09:45:01.556Z,101675.20
2018-06-23T09:47:30.409Z,101681.58
2018-06-23T09:49:59.366Z,101695.95
2018-06-23T09:52:28.413Z,101694.48
2018-06-23T09:54:57.399Z,101697.50
2018-06-23T09:57:26.267Z,101692.47
2018-06-23T09:59:57.871Z,101681.67
2018-06-23T10:02:26.782Z,101682.35
2018-06-23T10:04:55.690Z,101685.92
2018-06-23T10:07:24.669Z,101685.30
2018-06-23T10:09:53.581Z,101690.36
2018-06-23T10:12:22.536Z,101679.56
2018-06-23T10:14:51.475Z,101688.44
2018-06-23T10:17:20.496Z,101690.34
2018-06-23T10:19:49.417Z,101685.26
2018-06-23T10:22:18.367Z,101692.02
2018-06-23T10:24:47.222Z,101687.21
2018-06-23T10:27:16.132Z,101687.60
2018-06-23T10:29:44.992Z,101686.83
2018-06-23T10:32:13.842Z,101694.95
2018-06-23T10:34:42.884Z,101696.84
2018-06-23T10:37:12.550Z,101702.09
2018-06-23T10:39:41.485Z,101697.23
2018-06-23T10:42:49.517Z,101686.31
2018-06-23T10:45:18.637Z,101691.16
2018-06-23T10:47:48.621Z,101695.11
2018-06-23T10:50:17.546Z,101693.92
2018-06-23T10:52:46.685Z,101691.34
2018-06-23T10:55:18.705Z,101694.02
2018-06-23T10:57:47.594Z,101686.58
2018-06-23T11:00:16.987Z,101695.67
2018-06-23T11:02:45.944Z,101684.84
2018-06-23T11:05:15.266Z,101687.81
2018-06-23T11:07:44.165Z,101688.92
2018-06-23T11:10:13.866Z,101682.30
2018-06-23T11:12:42.806Z,101687.69
2018-06-23T11:15:11.796Z,101679.53
2018-06-23T11:17:40.755Z,101682.38
2018-06-23T11:20:09.645Z,101687.27
2018-06-23T11:22:38.537Z,101699.05
2018-06-23T11:25:07.433Z,101698.86
2018-06-23T11:27:36.550Z,101697.30
2018-06-23T11:30:07.073Z,101704.53
2018-06-23T11:32:36.485Z,101695.95
2018-06-23T11:35:05.738Z,101702.52
2018-06-23T11:37:38.557Z,101692.48
2018-06-23T11:40:10.999Z,101690.92
2018-06-23T11:42:39.969Z,101692.30
2018-06-23T11:45:08.837Z,101690.39
2018-06-23T11:47:38.674Z,101691.08
2018-06-23T11:50:07.716Z,101695.13
2018-06-23T11:52:43.225Z,101695.23
2018-06-23T11:55:20.115Z,101703.55
2018-06-23T11:57:56.543Z,101702.00
2018-06-23T12:00:32.189Z,101702.56
2018-06-23T12:03:01.710Z,101706.33
2018-06-23T12:05:37.792Z,101715.50
2018-06-23T12:08:10.300Z,101717.97
2018-06-23T12:10:41.275Z,101718.53
2018-06-23T12:13:21.349Z,101717.11
2018-06-23T12:15:54.517Z,101716.72
2018-06-23T12:18:29.280Z,101718.97
2018-06-23T12:21:02.771Z,101718.12
2018-06-23T12:23:39.919Z,101719.03
2018-06-23T12:26:17.682Z,101712.81
2018-06-23T12:28:56.712Z,101719.02
2018-06-23T12:31:35.345Z,101712.22
2018-06-23T12:34:10.987Z,101713.45
2018-06-23T12:36:39.866Z,101713.70
2018-06-23T12:39:14.528Z,101710.60
2018-06-23T12:41:47.591Z,101705.27
2018-06-23T12:44:16.711Z,101706.91
2018-06-23T12:46:45.598Z,101701.75
2018-06-23T12:49:14.447Z,101706.70
2018-06-23T12:51:43.323Z,101704.50
2018-06-23T12:54:12.196Z,101705.80
2018-06-23T12:56:41.089Z,101715.32
2018-06-23T12:59:10.319Z,101707.67
2018-06-23T13:01:39.169Z,101706.67
2018-06-23T13:04:08.269Z,101700.00
2018-06-23T13:06:37.108Z,101702.02
2018-06-23T13:09:08.911Z,101698.94
2018-06-23T13:11:37.792Z,101695.02
2018-06-23T13:14:06.645Z,101696.46
2018-06-23T13:16:38.336Z,101695.32
2018-06-23T13:19:13.234Z,101687.77
2018-06-23T13:21:44.129Z,101693.63
2018-06-23T13:24:13.548Z,101686.06
2018-06-23T13:26:43.651Z,101692.58
2018-06-23T13:29:12.501Z,101681.25
2018-06-23T13:31:41.323Z,101697.89
2018-06-23T13:34:10.254Z,101689.99
2018-06-23T13:36:39.353Z,101693.56
2018-06-23T13:39:09.637Z,101683.20
2018-06-23T13:41:38.527Z,101686.12
2018-06-23T13:44:07.390Z,101687.65
2018-06-23T13:46:36.297Z,101684.20
2018-06-23T13:49:05.614Z,101677.45
2018-06-23T13:51:34.502Z,101669.80
2018-06-23T13:54:03.447Z,101678.72
2018-06-23T13:56:32.312Z,101678.08
2018-06-23T13:59:01.203Z,101673.70
2018-06-23T14:01:30.138Z,101675.41
2018-06-23T14:03:58.965Z,101683.19
2018-06-23T14:06:28.565Z,101668.23
2018-06-23T14:08:57.795Z,101671.45
2018-06-23T14:11:26.849Z,101669.72
2018-06-23T14:13:55.772Z,101675.92
2018-06-23T14:16:25.628Z,101679.58
2018-06-23T14:19:03.160Z,101679.02
2018-06-23T14:21:32.452Z,101681.73
2018-06-23T14:24:01.686Z,101680.18
2018-06-23T14:26:31.204Z,101687.83
2018-06-23T14:29:00.664Z,101685.64
2018-06-23T14:31:29.772Z,101679.48
2018-06-23T14:33:59.279Z,101678.55
2018-06-23T14:36:28.281Z,101688.24
2018-06-23T14:38:57.202Z,101684.70
2018-06-23T14:41:26.284Z,101682.35
2018-06-23T14:43:55.249Z,101680.65
2018-06-23T14:46:24.208Z,101678.70
2018-06-23T23:36:17.450Z,101655.55
2018-06-23T23:38:46.388Z,101647.77
2018-06-23T23:41:39.949Z,101654.00
2018-06-23T23:54:12.469Z,101640.80
2018-06-23T23:56:41.377Z,101640.88
2018-06-23T23:59:10.309Z,101648.67
